Flugplatz Hüttenbusch (EDXU)

Hier findest Du alle Informationen zum Flugplatz Hüttenbusch (EDXU).

Informationen für Piloten zum Flugplatz Hüttenbusch

Hier findest Du alle relevanten Informationen, die Du als Pilot benötigst, um Hüttenbusch anzufliegen.

Flugplatz: Hüttenbusch ICAO-Code: EDXU
Frequenz Turm: 122,850 Mhz GAFOR Gebiet: 5
Frequenz Ground: 122,850 Mhz Mogas: ja
Platzrunde: N 1000 ft Landegebühr: -
Platzhöhe: - Sunrise: 07:25 Uhr UTC
Pisten: 09/27 - 450 m x 30 m, GRAS Sunset: 15:08 Uhr UTC

Mitglieder, die in Hüttenbusch fliegen

Flugwetter am Flugplatz Hüttenbusch

Die METAR Information stammen aus EDDW (28.65 km entfernt).

METAR Code:
2022/12/02 05:50
EDDW 020550Z AUTO 07010KT 6000 BKN008 01/M01 Q1026 NOSIG

Temperatur: -0,8 °C Niederschlag: - Wind: 4,5 kt (max.: 5,4 kt in Böen)
Temperatur (min.): -1,6 °C Luftdruck: 1008 hPa Windrichtung: 151 °
Temperatur (max.): -0,2 °C Luftfeuchtigkeit: 93 % Bewölkung: 1/8

Flugschulen am Flugplatz Hüttenbusch

Am Flugplatz Hüttenbusch gibt es leider keine Flugschule.

Benachbarte Flugplätze und Flugschulen

Es gibt 14 weitere Flugplätze in einem Umkreis von 50 km um den Flugplatz Hüttenbusch.

Jetzt anmelden

Passwort vergessen

Umfrage Archiv

Sendet Ihr ADS-B und/oder FLARM?

Ja
84.6 %
Nein
15.4 %
Stimmen: 254 | Diskussion
Anzeige: Roland Aircraft
Statistik Alle Mitglieder

Aktuell sind 57 Besucher online.

Anzeige: ULPower Aero Engines Anzeige: EasyVFR